Time;durP1;ratioP1;P1;durP2;ratioP2;P2;SDS_P1;SDS_P2;PMS_P1;PMS_P2;Temp;Humidity;BMP_temperature;BMP_pressure;BME280_temperature;BME280_humidity;BME280_pressure;Samples;Min_cycle;Max_cycle;Signal;HPM_P1;HPM_P2
2023/04/25 00:00:25;;;;;;;4.25;1.35;;;19.50;59.00;;;;;;5093871;28;20044;-71
2023/04/25 00:02:50;;;;;;;3.60;1.20;;;19.50;58.90;;;;;;5094271;28;20039;-71
2023/04/25 00:05:16;;;;;;;3.15;1.20;;;19.50;59.00;;;;;;5094166;28;20043;-71
2023/04/25 00:07:42;;;;;;;3.58;1.13;;;19.50;58.90;;;;;;5096236;28;20110;-71
2023/04/25 00:10:09;;;;;;;3.75;1.35;;;19.40;58.90;;;;;;5113520;28;20088;-71
2023/04/25 00:12:35;;;;;;;5.93;1.58;;;19.40;58.80;;;;;;5113945;27;20052;-71
2023/04/25 00:15:01;;;;;;;3.13;1.27;;;19.40;58.90;;;;;;5114445;28;20417;-71
2023/04/25 00:17:27;;;;;;;3.42;1.38;;;19.50;58.90;;;;;;5114154;28;20058;-71
2023/04/25 00:19:52;;;;;;;4.38;1.23;;;19.40;58.80;;;;;;5113973;28;20043;-71
2023/04/25 00:22:18;;;;;;;3.85;1.30;;;19.40;58.80;;;;;;5113999;28;20050;-71
2023/04/25 00:24:43;;;;;;;3.58;1.05;;;19.40;58.80;;;;;;5113147;28;20058;-71
2023/04/25 00:27:09;;;;;;;6.00;1.40;;;19.40;58.90;;;;;;5113691;28;20051;-71
2023/04/25 00:29:35;;;;;;;3.30;1.13;;;19.40;58.80;;;;;;5112721;28;20048;-71
2023/04/25 00:32:01;;;;;;;4.55;1.48;;;19.40;58.80;;;;;;5112954;28;20044;-71
2023/04/25 00:34:26;;;;;;;6.30;1.65;;;19.40;58.80;;;;;;5113200;28;20079;-71
2023/04/25 00:36:52;;;;;;;3.50;1.15;;;19.40;58.80;;;;;;5112827;28;20043;-71
2023/04/25 00:39:17;;;;;;;4.43;1.25;;;19.40;58.80;;;;;;5103888;28;20075;-72
2023/04/25 00:41:43;;;;;;;5.55;1.50;;;19.40;58.80;;;;;;5113448;28;20047;-71
2023/04/25 00:44:11;;;;;;;3.28;1.10;;;19.30;58.70;;;;;;5098069;28;20036;-71
2023/04/25 00:46:36;;;;;;;4.30;1.38;;;19.30;58.70;;;;;;5092527;28;20063;-71
2023/04/25 00:49:02;;;;;;;5.38;1.45;;;19.30;58.70;;;;;;5091704;28;20079;-71
2023/04/25 00:51:27;;;;;;;3.60;1.38;;;19.30;58.70;;;;;;5093519;28;20373;-71
2023/04/25 00:53:53;;;;;;;4.22;1.33;;;19.30;58.70;;;;;;5074672;28;20127;-71
2023/04/25 00:56:19;;;;;;;4.75;1.20;;;19.30;58.60;;;;;;5091531;28;20417;-71
2023/04/25 00:58:44;;;;;;;3.63;1.20;;;19.30;58.60;;;;;;5092117;28;20079;-71
2023/04/25 01:01:10;;;;;;;3.05;1.10;;;19.30;58.60;;;;;;5092117;28;20181;-71
2023/04/25 01:03:40;;;;;;;3.85;1.25;;;19.30;58.60;;;;;;5090682;28;20471;-71
2023/04/25 01:06:09;;;;;;;3.72;1.30;;;19.30;58.60;;;;;;5091903;28;20066;-71
2023/04/25 01:08:35;;;;;;;4.40;1.55;;;19.30;58.60;;;;;;5093651;28;20056;-71
2023/04/25 01:11:01;;;;;;;3.60;1.00;;;19.30;58.60;;;;;;5092245;28;20072;-71
2023/04/25 01:13:26;;;;;;;5.07;1.27;;;19.30;58.60;;;;;;5092930;28;20078;-71
2023/04/25 01:15:52;;;;;;;3.08;1.33;;;19.20;58.50;;;;;;5092484;28;20529;-71
2023/04/25 01:18:18;;;;;;;5.88;1.40;;;19.20;58.50;;;;;;5074934;28;20495;-71
2023/04/25 01:20:44;;;;;;;4.30;1.20;;;19.20;58.50;;;;;;5091992;28;20055;-71
2023/04/25 01:23:09;;;;;;;3.60;1.30;;;19.20;58.50;;;;;;5094493;28;20039;-71
2023/04/25 01:25:35;;;;;;;3.38;1.00;;;19.30;58.50;;;;;;5111958;28;20211;-71
2023/04/25 01:28:00;;;;;;;4.63;1.25;;;19.20;58.50;;;;;;5111095;28;20028;-71
2023/04/25 01:30:27;;;;;;;6.03;1.45;;;19.20;58.50;;;;;;5092003;28;20519;-71
2023/04/25 01:32:54;;;;;;;3.88;1.05;;;19.20;58.40;;;;;;5092735;28;20429;-71
2023/04/25 01:35:20;;;;;;;3.50;1.00;;;19.20;58.40;;;;;;5091625;28;20086;-71
2023/04/25 01:37:46;;;;;;;4.47;1.10;;;19.20;58.40;;;;;;5092109;28;20052;-71
2023/04/25 01:40:12;;;;;;;4.43;1.17;;;19.20;58.40;;;;;;5098162;28;20071;-71
2023/04/25 01:42:41;;;;;;;3.75;1.20;;;19.20;58.40;;;;;;5101826;28;20047;-71
2023/04/25 01:45:07;;;;;;;2.88;1.10;;;19.20;58.40;;;;;;5092384;28;20048;-71
2023/04/25 01:47:34;;;;;;;2.75;0.95;;;19.20;58.40;;;;;;5092581;28;20052;-71
2023/04/25 01:50:03;;;;;;;3.88;1.27;;;19.20;58.40;;;;;;5092288;28;20089;-71
2023/04/25 01:52:29;;;;;;;5.47;1.50;;;19.20;58.40;;;;;;5091808;28;20051;-71
2023/04/25 01:54:56;;;;;;;4.57;1.45;;;19.10;58.30;;;;;;5107965;28;20130;-70
2023/04/25 01:57:22;;;;;;;2.70;1.10;;;19.10;58.30;;;;;;5112930;28;20055;-71
2023/04/25 01:59:47;;;;;;;5.10;1.33;;;19.10;58.30;;;;;;5110869;28;20036;-71
2023/04/25 02:02:13;;;;;;;3.20;1.30;;;19.10;58.30;;;;;;5112373;28;20089;-71
2023/04/25 02:04:38;;;;;;;5.05;1.65;;;19.10;58.30;;;;;;5112405;28;20035;-71
2023/04/25 02:07:04;;;;;;;4.53;1.17;;;19.10;58.30;;;;;;5111718;28;20163;-71
2023/04/25 02:09:30;;;;;;;3.95;1.08;;;19.10;58.30;;;;;;5112446;28;20058;-71
2023/04/25 02:11:55;;;;;;;3.65;1.17;;;19.10;58.20;;;;;;5112602;28;20110;-71
2023/04/25 02:14:21;;;;;;;6.03;1.40;;;19.10;58.20;;;;;;5111492;28;20039;-71
2023/04/25 02:16:46;;;;;;;4.30;1.15;;;19.10;58.20;;;;;;5112688;28;20062;-71
2023/04/25 02:19:12;;;;;;;4.47;1.25;;;19.10;58.20;;;;;;5111380;28;20067;-71
2023/04/25 02:21:37;;;;;;;2.67;0.90;;;19.10;58.20;;;;;;5112754;28;20039;-71
2023/04/25 02:24:04;;;;;;;3.78;1.25;;;19.10;58.20;;;;;;5111921;28;20052;-71
2023/04/25 02:26:30;;;;;;;4.47;1.10;;;19.10;58.20;;;;;;5111584;28;20132;-71
2023/04/25 02:28:56;;;;;;;3.67;1.00;;;19.10;58.20;;;;;;5111928;28;20036;-71
2023/04/25 02:31:22;;;;;;;3.80;0.90;;;19.10;58.20;;;;;;5112540;28;20066;-71
2023/04/25 02:33:47;;;;;;;2.13;0.98;;;19.10;58.20;;;;;;5110498;28;20471;-71
2023/04/25 02:36:13;;;;;;;3.92;1.35;;;19.10;58.20;;;;;;5111908;28;20101;-71
2023/04/25 02:38:39;;;;;;;3.17;1.17;;;19.10;59.00;;;;;;5108719;28;20050;-71
2023/04/25 02:41:04;;;;;;;3.78;1.05;;;19.10;58.30;;;;;;5091242;28;20047;-70
2023/04/25 02:43:30;;;;;;;4.13;1.20;;;19.10;58.30;;;;;;5092108;28;20036;-70
2023/04/25 02:45:55;;;;;;;3.60;1.15;;;19.10;58.30;;;;;;5099707;28;20390;-70
2023/04/25 02:48:21;;;;;;;3.15;0.95;;;19.10;58.30;;;;;;5102626;28;20056;-71
2023/04/25 02:50:46;;;;;;;4.25;1.15;;;19.10;58.30;;;;;;5091899;28;20522;-70
2023/04/25 02:53:12;;;;;;;4.28;1.27;;;19.10;58.20;;;;;;5091898;28;20461;-70
2023/04/25 02:55:38;;;;;;;3.60;1.25;;;19.10;58.20;;;;;;5091034;28;20166;-71
2023/04/25 02:58:03;;;;;;;3.45;1.20;;;19.10;58.20;;;;;;5091659;28;20040;-71
2023/04/25 03:00:29;;;;;;;3.17;1.00;;;19.10;58.20;;;;;;5090947;28;20055;-71
2023/04/25 03:02:55;;;;;;;3.72;1.20;;;19.20;58.30;;;;;;5094292;28;20368;-71
2023/04/25 03:05:21;;;;;;;3.22;1.00;;;19.20;58.20;;;;;;5112237;28;20418;-71
2023/04/25 03:07:46;;;;;;;4.35;1.25;;;19.20;58.30;;;;;;5111878;28;20044;-71
2023/04/25 03:10:12;;;;;;;3.10;0.90;;;19.20;58.20;;;;;;5111090;28;20058;-71
2023/04/25 03:12:38;;;;;;;2.35;1.00;;;19.20;58.20;;;;;;5111927;28;20067;-70
2023/04/25 03:15:04;;;;;;;2.83;0.95;;;19.20;58.20;;;;;;5111658;28;20043;-71
2023/04/25 03:17:29;;;;;;;3.35;1.10;;;19.20;58.20;;;;;;5109596;28;20043;-71
2023/04/25 03:19:55;;;;;;;3.60;1.33;;;19.20;58.20;;;;;;5112012;28;20047;-71
2023/04/25 03:22:21;;;;;;;4.57;1.25;;;19.20;58.10;;;;;;5111828;28;20055;-71
2023/04/25 03:24:47;;;;;;;3.05;0.90;;;19.20;58.20;;;;;;5091584;28;20040;-71
2023/04/25 03:27:12;;;;;;;2.22;1.00;;;19.20;58.10;;;;;;5092217;28;20483;-71
2023/04/25 03:29:38;;;;;;;4.28;1.17;;;19.20;58.20;;;;;;5094514;28;20387;-71
2023/04/25 03:32:03;;;;;;;3.65;1.10;;;19.30;58.20;;;;;;5094835;28;20070;-71
2023/04/25 03:34:29;;;;;;;2.78;0.90;;;19.30;58.20;;;;;;5095210;28;20044;-71
2023/04/25 03:36:55;;;;;;;2.58;0.93;;;19.30;58.20;;;;;;5094098;28;20050;-71
2023/04/25 03:39:20;;;;;;;3.08;0.90;;;19.30;58.20;;;;;;5108189;28;20036;-71
2023/04/25 03:41:46;;;;;;;3.10;1.23;;;19.30;58.20;;;;;;5115638;28;20123;-71
2023/04/25 03:44:11;;;;;;;3.88;1.00;;;19.30;58.20;;;;;;5114067;28;20049;-70
2023/04/25 03:46:37;;;;;;;4.03;0.82;;;19.40;58.20;;;;;;5115185;28;20050;-70
2023/04/25 03:49:03;;;;;;;3.72;0.95;;;19.40;58.10;;;;;;5113841;28;20027;-71
2023/04/25 03:51:28;;;;;;;5.18;1.10;;;19.40;58.20;;;;;;5114525;28;20380;-71
2023/04/25 03:53:54;;;;;;;4.07;1.20;;;19.40;58.10;;;;;;5115120;28;20480;-71
2023/04/25 03:56:20;;;;;;;3.80;1.02;;;19.40;58.10;;;;;;5115098;28;20612;-71
2023/04/25 03:58:45;;;;;;;3.20;1.10;;;19.40;58.10;;;;;;5113890;28;20040;-71
2023/04/25 04:01:11;;;;;;;2.03;0.68;;;19.40;58.10;;;;;;5105132;28;20047;-71
2023/04/25 04:03:37;;;;;;;2.85;0.90;;;19.50;58.10;;;;;;5094094;28;20403;-71
2023/04/25 04:06:04;;;;;;;3.97;1.15;;;19.50;58.10;;;;;;5092893;28;20498;-71
2023/04/25 04:08:29;;;;;;;2.67;0.85;;;19.50;58.10;;;;;;5092771;28;20040;-71
2023/04/25 04:10:56;;;;;;;3.50;1.08;;;19.50;58.10;;;;;;5092985;28;20197;-70
2023/04/25 04:13:22;;;;;;;6.68;1.10;;;19.50;58.10;;;;;;5093806;28;20032;-72
2023/04/25 04:15:47;;;;;;;3.28;0.90;;;19.60;58.10;;;;;;5093118;28;20054;-71
2023/04/25 04:18:13;;;;;;;2.22;0.63;;;19.60;58.10;;;;;;5092711;28;20039;-71
2023/04/25 04:20:38;;;;;;;3.75;1.10;;;19.60;58.10;;;;;;5093752;28;20036;-71
2023/04/25 04:23:05;;;;;;;2.75;1.27;;;19.60;58.10;;;;;;5094002;28;20101;-71
2023/04/25 04:25:30;;;;;;;2.85;1.02;;;19.60;58.00;;;;;;5093903;28;20060;-71
2023/04/25 04:27:57;;;;;;;4.65;1.08;;;19.70;58.10;;;;;;5093276;28;20101;-71
2023/04/25 04:30:24;;;;;;;4.40;0.98;;;19.70;58.10;;;;;;5094076;28;20036;-71
2023/04/25 04:32:50;;;;;;;3.42;1.13;;;19.60;57.90;;;;;;5092015;28;20048;-71
2023/04/25 04:35:15;;;;;;;3.72;1.00;;;19.70;58.00;;;;;;5093863;28;20036;-71
2023/04/25 04:37:41;;;;;;;3.58;0.80;;;19.70;58.00;;;;;;5093878;28;20043;-71
2023/04/25 04:40:07;;;;;;;3.40;1.00;;;19.70;57.90;;;;;;5091673;28;20171;-71
2023/04/25 04:42:33;;;;;;;2.67;0.80;;;19.70;57.90;;;;;;5093047;28;20044;-71
2023/04/25 04:45:01;;;;;;;3.83;1.00;;;19.70;58.60;;;;;;5093351;28;20449;-71
2023/04/25 04:47:30;;;;;;;4.47;1.00;;;19.70;57.90;;;;;;5093262;28;20044;-71
2023/04/25 04:49:56;;;;;;;2.88;1.00;;;19.80;57.90;;;;;;5093653;28;20082;-71
2023/04/25 04:52:21;;;;;;;2.53;1.00;;;19.80;57.90;;;;;;5092182;28;20071;-71
2023/04/25 04:54:47;;;;;;;2.22;0.73;;;19.80;57.80;;;;;;5093037;28;20067;-71
2023/04/25 04:57:12;;;;;;;3.55;1.10;;;19.80;57.80;;;;;;5093496;28;20096;-71
2023/04/25 04:59:38;;;;;;;2.83;0.80;;;19.80;57.80;;;;;;5093774;28;20112;-71
2023/04/25 05:02:03;;;;;;;2.92;0.90;;;19.80;57.80;;;;;;5092507;28;20040;-71
2023/04/25 05:04:29;;;;;;;2.53;0.80;;;19.80;57.80;;;;;;5093570;28;20088;-71
2023/04/25 05:06:55;;;;;;;3.75;0.90;;;19.80;57.80;;;;;;5093250;28;20036;-71
2023/04/25 05:09:20;;;;;;;2.50;1.20;;;19.80;57.80;;;;;;5092485;28;20044;-71
2023/04/25 05:11:46;;;;;;;3.38;0.80;;;19.80;57.80;;;;;;5093395;28;20062;-71
2023/04/25 05:14:11;;;;;;;3.13;0.77;;;19.80;57.90;;;;;;5093064;28;20042;-71
2023/04/25 05:16:37;;;;;;;3.20;1.15;;;19.80;57.90;;;;;;5091180;28;20044;-71
2023/04/25 05:19:02;;;;;;;3.08;1.10;;;19.80;57.90;;;;;;5092862;28;20097;-72
2023/04/25 05:21:28;;;;;;;2.88;0.80;;;19.90;58.00;;;;;;5091580;28;20123;-72
2023/04/25 05:23:54;;;;;;;2.38;0.80;;;19.90;58.00;;;;;;5095696;28;20055;-71
2023/04/25 05:26:20;;;;;;;3.08;0.88;;;19.90;58.70;;;;;;5112100;28;20081;-72
2023/04/25 05:28:45;;;;;;;3.08;0.80;;;19.90;57.90;;;;;;5104471;28;20047;-73
2023/04/25 05:31:11;;;;;;;2.35;0.90;;;19.90;57.90;;;;;;5090936;28;20040;-72
2023/04/25 05:33:37;;;;;;;3.88;1.00;;;19.90;57.90;;;;;;5092709;28;20135;-72
2023/04/25 05:36:02;;;;;;;3.60;1.08;;;19.90;57.90;;;;;;5092366;28;20040;-70
2023/04/25 05:38:28;;;;;;;3.03;0.90;;;19.90;57.90;;;;;;5095691;28;20035;-70
2023/04/25 05:40:53;;;;;;;5.32;1.15;;;19.90;57.80;;;;;;5093022;28;20032;-70
2023/04/25 05:43:19;;;;;;;4.05;1.00;;;20.00;57.70;;;;;;5091455;28;20135;-70
2023/04/25 05:45:45;;;;;;;4.28;1.17;;;20.00;57.70;;;;;;5092613;28;20044;-69
2023/04/25 05:48:10;;;;;;;5.28;1.27;;;20.00;57.70;;;;;;5074261;28;20094;-70
2023/04/25 05:50:36;;;;;;;4.55;0.70;;;20.00;57.70;;;;;;5107932;28;20048;-70
2023/04/25 05:53:02;;;;;;;2.83;0.93;;;20.00;57.70;;;;;;5111393;28;20040;-73
2023/04/25 05:55:27;;;;;;;4.28;0.95;;;20.00;57.70;;;;;;5112846;28;20172;-71
2023/04/25 05:57:53;;;;;;;5.20;1.05;;;20.10;57.80;;;;;;5112331;28;20130;-69
2023/04/25 06:00:19;;;;;;;3.90;1.00;;;20.10;57.80;;;;;;5111766;28;20043;-69
2023/04/25 06:02:44;;;;;;;3.05;0.80;;;20.10;57.70;;;;;;5111649;28;20050;-69
2023/04/25 06:05:10;;;;;;;6.35;1.35;;;20.10;57.80;;;;;;5111360;28;20036;-69
2023/04/25 06:07:35;;;;;;;2.83;0.90;;;20.10;57.80;;;;;;5112575;28;20045;-69
2023/04/25 06:10:01;;;;;;;3.60;1.08;;;20.10;57.80;;;;;;5112458;28;20490;-69
2023/04/25 06:12:26;;;;;;;4.22;0.95;;;20.10;57.70;;;;;;5111941;28;20046;-70
2023/04/25 06:14:52;;;;;;;2.85;0.77;;;20.10;57.80;;;;;;5111443;28;20040;-69
2023/04/25 06:17:17;;;;;;;7.55;0.85;;;20.10;57.80;;;;;;5111207;28;20074;-70
2023/04/25 06:19:43;;;;;;;3.92;0.82;;;20.10;57.80;;;;;;5111744;28;20043;-69
2023/04/25 06:22:09;;;;;;;4.40;0.88;;;20.10;57.80;;;;;;5112563;28;20552;-73
2023/04/25 06:24:35;;;;;;;4.07;1.02;;;20.20;57.90;;;;;;5112227;28;20077;-70
2023/04/25 06:27:00;;;;;;;4.07;1.33;;;20.20;58.00;;;;;;5111698;28;20044;-72
2023/04/25 06:29:26;;;;;;;4.97;1.05;;;20.20;58.00;;;;;;5112357;28;20051;-72
2023/04/25 06:31:52;;;;;;;3.17;0.80;;;20.20;58.10;;;;;;5111281;28;20073;-74
2023/04/25 06:34:17;;;;;;;3.22;0.93;;;20.20;58.10;;;;;;5111216;28;20048;-74
2023/04/25 06:36:44;;;;;;;3.80;0.95;;;20.30;58.30;;;;;;5112589;28;20177;-72
2023/04/25 06:39:10;;;;;;;4.80;1.00;;;20.30;58.30;;;;;;5110658;28;20088;-72
2023/04/25 06:41:36;;;;;;;4.25;0.90;;;20.30;58.30;;;;;;5111501;28;20448;-74
2023/04/25 06:44:01;;;;;;;6.78;0.90;;;20.30;58.40;;;;;;5103126;28;20122;-72
2023/04/25 06:46:27;;;;;;;4.18;1.00;;;20.30;58.30;;;;;;5091481;28;20040;-72
2023/04/25 06:48:52;;;;;;;5.15;0.85;;;20.30;58.40;;;;;;5091653;28;20165;-72
2023/04/25 06:51:18;;;;;;;3.25;1.00;;;20.30;58.40;;;;;;5091241;28;20090;-72
2023/04/25 06:53:43;;;;;;;5.68;1.10;;;20.40;58.50;;;;;;5090118;28;20111;-73
2023/04/25 06:56:09;;;;;;;6.72;1.10;;;20.40;58.60;;;;;;5089483;28;20044;-76
2023/04/25 06:58:35;;;;;;;3.92;0.77;;;20.40;58.60;;;;;;5090878;28;20079;-76
2023/04/25 07:01:01;;;;;;;4.82;1.10;;;20.40;58.60;;;;;;5090415;28;20067;-74
2023/04/25 07:03:26;;;;;;;4.57;0.90;;;20.40;58.60;;;;;;5094396;28;20028;-75
2023/04/25 07:05:52;;;;;;;3.15;0.98;;;20.40;58.50;;;;;;5091504;28;20036;-73
2023/04/25 07:08:17;;;;;;;4.60;1.00;;;20.40;58.60;;;;;;5094428;28;20055;-73
2023/04/25 07:10:43;;;;;;;5.50;0.90;;;20.40;58.60;;;;;;5095643;28;20028;-71
2023/04/25 07:13:08;;;;;;;3.72;0.95;;;20.40;58.50;;;;;;5095162;28;20433;-71
2023/04/25 07:15:34;;;;;;;3.65;0.88;;;20.50;58.60;;;;;;5094708;28;20078;-71
2023/04/25 07:17:59;;;;;;;2.78;1.00;;;20.40;58.50;;;;;;5093850;28;20047;-72
2023/04/25 07:20:27;;;;;;;2.53;1.00;;;20.50;58.60;;;;;;5095728;28;20130;-72
2023/04/25 07:22:53;;;;;;;3.73;0.83;;;20.50;58.50;;;;;;5093896;28;20047;-70
2023/04/25 07:25:18;;;;;;;7.80;1.33;;;20.40;58.50;;;;;;5094546;28;20312;-69
2023/04/25 07:27:44;;;;;;;3.72;0.93;;;20.40;58.40;;;;;;5095516;28;20403;-70
2023/04/25 07:30:12;;;;;;;4.35;1.20;;;20.40;58.20;;;;;;5094310;28;20123;-70
2023/04/25 07:32:38;;;;;;;4.38;1.40;;;20.40;58.10;;;;;;5095461;28;20043;-70
2023/04/25 07:35:04;;;;;;;6.30;1.23;;;20.40;58.40;;;;;;5103987;28;20036;-70
2023/04/25 07:37:29;;;;;;;2.75;1.00;;;20.40;58.10;;;;;;5094100;28;20040;-71
2023/04/25 07:39:55;;;;;;;3.03;0.95;;;20.40;58.10;;;;;;5099621;28;20053;-70
2023/04/25 07:42:21;;;;;;;6.65;1.08;;;20.40;58.10;;;;;;5098329;28;20440;-69
2023/04/25 07:44:47;;;;;;;2.90;1.25;;;20.40;58.00;;;;;;5093126;28;20123;-70
2023/04/25 07:47:13;;;;;;;5.28;1.30;;;20.40;58.00;;;;;;5094601;28;20035;-70
2023/04/25 07:49:39;;;;;;;4.55;1.23;;;20.40;57.90;;;;;;5093652;28;20483;-70
2023/04/25 07:52:07;;;;;;;4.50;1.17;;;20.40;57.90;;;;;;5093776;28;20132;-70
2023/04/25 07:54:33;;;;;;;4.82;1.00;;;20.40;57.90;;;;;;5094801;28;20075;-70
2023/04/25 07:56:59;;;;;;;3.55;0.93;;;20.40;57.90;;;;;;5093702;28;20076;-70
2023/04/25 07:59:25;;;;;;;5.18;1.40;;;20.40;57.90;;;;;;5094828;28;20044;-70
2023/04/25 08:01:50;;;;;;;4.10;1.17;;;20.40;57.90;;;;;;5094393;28;20038;-70
2023/04/25 08:04:16;;;;;;;5.68;1.15;;;20.40;57.80;;;;;;5092577;28;20526;-70
2023/04/25 08:06:42;;;;;;;4.35;1.10;;;20.40;57.80;;;;;;5094795;28;20396;-70
2023/04/25 08:09:09;;;;;;;5.50;1.08;;;20.40;57.70;;;;;;5094154;28;20441;-70
2023/04/25 08:11:35;;;;;;;3.45;0.90;;;20.40;57.70;;;;;;5093521;28;20043;-71
2023/04/25 08:14:00;;;;;;;5.28;1.25;;;20.40;57.60;;;;;;5093683;28;20095;-70
2023/04/25 08:16:26;;;;;;;5.28;1.13;;;20.40;57.60;;;;;;5094549;28;20070;-71
2023/04/25 08:18:51;;;;;;;3.53;1.00;;;20.40;57.50;;;;;;5093729;28;20054;-70
2023/04/25 08:21:17;;;;;;;5.40;1.33;;;20.40;58.20;;;;;;5107438;28;20376;-70
2023/04/25 08:23:42;;;;;;;3.38;1.02;;;20.40;57.40;;;;;;5114557;28;20126;-70
2023/04/25 08:26:08;;;;;;;5.50;1.08;;;20.40;57.30;;;;;;5113648;28;20089;-70
2023/04/25 08:28:33;;;;;;;7.60;1.52;;;20.40;57.30;;;;;;5113395;28;20058;-70
2023/04/25 08:30:59;;;;;;;2.40;1.10;;;20.40;57.20;;;;;;5113913;28;20055;-71
2023/04/25 08:33:25;;;;;;;6.45;1.40;;;20.40;57.20;;;;;;5112532;28;20071;-71
2023/04/25 08:35:51;;;;;;;2.67;1.00;;;20.40;57.20;;;;;;5112919;28;20043;-70
2023/04/25 08:38:17;;;;;;;5.68;1.10;;;20.40;57.20;;;;;;5114197;28;20039;-71
2023/04/25 08:40:42;;;;;;;4.15;1.15;;;20.40;57.20;;;;;;5113447;28;20044;-70
2023/04/25 08:43:11;;;;;;;2.70;0.90;;;20.50;57.20;;;;;;5112584;28;20047;-70
2023/04/25 08:45:43;;;;;;;5.35;1.60;;;20.40;57.10;;;;;;5105659;27;20055;-70
2023/04/25 08:48:11;;;;;;;5.93;1.30;;;20.40;57.00;;;;;;5092674;28;20098;-70
2023/04/25 08:50:51;;;;;;;3.17;0.95;;;20.40;56.90;;;;;;5094021;28;20063;-70
2023/04/25 08:53:19;;;;;;;4.20;1.13;;;20.40;56.90;;;;;;5092718;28;20530;-70
2023/04/25 08:55:46;;;;;;;5.10;1.30;;;20.40;56.90;;;;;;5100939;28;20449;-70
2023/04/25 08:58:11;;;;;;;4.68;1.00;;;20.40;56.90;;;;;;5112315;28;20355;-71
2023/04/25 09:00:37;;;;;;;4.07;1.30;;;20.30;56.80;;;;;;5094608;28;20462;-69
2023/04/25 09:03:02;;;;;;;3.40;1.00;;;20.30;56.80;;;;;;5097769;28;20040;-69
2023/04/25 09:05:28;;;;;;;4.00;1.10;;;20.30;56.80;;;;;;5091508;28;20070;-68
2023/04/25 09:07:56;;;;;;;4.82;1.20;;;20.30;56.70;;;;;;5091851;28;20043;-69
2023/04/25 09:10:21;;;;;;;3.33;1.00;;;20.30;56.80;;;;;;5093207;28;20067;-70
2023/04/25 09:13:03;;;;;;;3.17;1.13;;;20.30;56.80;;;;;;5092694;28;20067;-70
2023/04/25 09:15:29;;;;;;;4.97;1.08;;;20.30;56.90;;;;;;5089555;28;20032;-69
2023/04/25 09:17:58;;;;;;;3.85;0.98;;;20.30;56.90;;;;;;5092533;28;20063;-69
2023/04/25 09:20:24;;;;;;;2.45;0.80;;;20.30;56.90;;;;;;5092676;28;20119;-69
2023/04/25 09:23:00;;;;;;;4.18;1.30;;;20.30;56.90;;;;;;5092183;28;20032;-69
2023/04/25 09:25:26;;;;;;;3.15;0.90;;;20.30;56.90;;;;;;5089818;28;20091;-68
2023/04/25 09:27:53;;;;;;;2.53;1.00;;;20.30;56.90;;;;;;5092479;28;20491;-69
2023/04/25 09:30:18;;;;;;;4.32;1.00;;;20.40;57.00;;;;;;5091232;28;20040;-69
2023/04/25 09:32:45;;;;;;;3.25;1.00;;;20.40;57.00;;;;;;5092753;28;20059;-70
2023/04/25 09:35:11;;;;;;;3.20;0.93;;;20.40;57.30;;;;;;5092866;28;20052;-70
2023/04/25 09:37:36;;;;;;;3.80;0.80;;;20.40;56.90;;;;;;5092073;28;20460;-70
2023/04/25 09:40:05;;;;;;;3.60;1.05;;;20.40;56.40;;;;;;5092630;28;20065;-69
2023/04/25 09:42:31;;;;;;;4.90;1.02;;;20.40;56.10;;;;;;5091952;28;20047;-68
2023/04/25 09:44:57;;;;;;;3.47;1.00;;;20.40;55.80;;;;;;5092628;28;20047;-69
2023/04/25 09:47:24;;;;;;;2.97;0.90;;;20.30;55.80;;;;;;5095273;28;20074;-68
2023/04/25 09:49:51;;;;;;;4.53;0.90;;;20.30;55.80;;;;;;5092635;28;20531;-68
2023/04/25 09:52:20;;;;;;;5.55;1.15;;;20.30;55.80;;;;;;5090778;28;20040;-70
2023/04/25 09:54:47;;;;;;;5.15;0.88;;;20.30;56.00;;;;;;5092714;28;20642;-70
2023/04/25 09:57:19;;;;;;;7.30;1.30;;;20.30;56.00;;;;;;5090850;28;20145;-68
2023/04/25 09:59:46;;;;;;;6.75;1.05;;;20.30;56.10;;;;;;5092074;28;20475;-69
2023/04/25 10:02:12;;;;;;;2.88;0.70;;;20.30;56.30;;;;;;5089221;28;20068;-72
2023/04/25 10:04:38;;;;;;;3.25;0.98;;;20.30;56.50;;;;;;5091512;28;20245;-71
2023/04/25 10:07:07;;;;;;;5.57;1.02;;;20.30;56.50;;;;;;5090528;28;20089;-72
2023/04/25 10:09:33;;;;;;;5.20;0.95;;;20.30;56.60;;;;;;5091099;28;20047;-72
2023/04/25 10:11:59;;;;;;;5.05;1.98;;;20.30;56.60;;;;;;5089911;28;20044;-72
2023/04/25 10:14:25;;;;;;;5.07;0.70;;;20.30;56.50;;;;;;5092190;28;20040;-72
2023/04/25 10:16:53;;;;;;;4.55;1.00;;;20.30;56.60;;;;;;5090913;28;20044;-72
2023/04/25 10:19:21;;;;;;;7.30;1.27;;;20.30;56.60;;;;;;5090134;28;20141;-71
2023/04/25 10:22:20;;;;;;;2.17;0.90;;;20.30;56.60;;;;;;5091340;28;20036;-68
2023/04/25 10:24:46;;;;;;;3.47;1.00;;;20.30;56.70;;;;;;5077292;28;20059;-70
2023/04/25 10:27:12;;;;;;;3.95;1.02;;;20.30;56.70;;;;;;5073402;28;20127;-70
2023/04/25 10:29:37;;;;;;;3.25;1.10;;;20.30;56.60;;;;;;5090710;28;20044;-69
2023/04/25 10:32:03;;;;;;;7.03;1.25;;;20.30;56.60;;;;;;5091029;28;20044;-70
2023/04/25 10:34:42;;;;;;;5.75;1.00;;;20.30;56.60;;;;;;5092152;28;20047;-70
2023/04/25 10:37:11;;;;;;;3.45;1.10;;;20.40;56.60;;;;;;5093959;28;20056;-70
2023/04/25 10:39:43;;;;;;;1.88;0.90;;;20.40;56.60;;;;;;5094451;28;20048;-70
2023/04/25 10:42:09;;;;;;;2.70;0.90;;;20.40;56.60;;;;;;5094997;28;20135;-71
2023/04/25 10:44:36;;;;;;;2.00;0.85;;;20.40;56.60;;;;;;5095787;28;20123;-70
2023/04/25 10:47:05;;;;;;;3.63;0.88;;;20.40;56.60;;;;;;5093117;28;20052;-66
2023/04/25 10:49:31;;;;;;;4.43;1.15;;;20.40;56.50;;;;;;5094842;28;20043;-67
2023/04/25 10:52:15;;;;;;;4.68;1.25;;;20.40;56.40;;;;;;5095053;28;20044;-67
2023/04/25 10:54:48;;;;;;;3.28;1.10;;;20.40;56.30;;;;;;5095574;28;20399;-67
2023/04/25 10:57:36;;;;;;;5.28;1.05;;;20.40;56.30;;;;;;5094786;28;20044;-67
2023/04/25 11:00:11;;;;;;;2.40;0.73;;;20.30;56.20;;;;;;5095421;28;20043;-67
2023/04/25 11:02:38;;;;;;;3.10;1.00;;;20.30;56.30;;;;;;5096275;28;20036;-68
2023/04/25 11:05:04;;;;;;;4.55;0.80;;;20.30;57.10;;;;;;5095985;28;20048;-69
2023/04/25 11:07:50;;;;;;;4.53;0.90;;;20.30;56.50;;;;;;5093910;28;20384;-70
2023/04/25 11:10:15;;;;;;;4.85;0.93;;;20.30;56.60;;;;;;5095542;28;20042;-70
2023/04/25 11:12:41;;;;;;;3.20;1.25;;;20.30;56.60;;;;;;5094684;28;20043;-71
2023/04/25 11:15:07;;;;;;;2.75;0.90;;;20.30;56.70;;;;;;5094306;28;20071;-72
2023/04/25 11:17:33;;;;;;;2.15;0.80;;;20.40;56.90;;;;;;5095555;28;20051;-71
2023/04/25 11:19:59;;;;;;;3.72;1.00;;;20.40;56.90;;;;;;5093750;28;20040;-71
2023/04/25 11:22:26;;;;;;;2.95;0.88;;;20.40;57.00;;;;;;5093350;28;20475;-72
2023/04/25 11:24:52;;;;;;;2.35;0.90;;;20.40;57.10;;;;;;5094823;28;20047;-71
2023/04/25 11:27:17;;;;;;;4.63;0.90;;;20.40;57.10;;;;;;5095419;28;20139;-71
2023/04/25 11:29:43;;;;;;;3.35;1.00;;;20.50;57.20;;;;;;5094510;28;20423;-70
2023/04/25 11:32:08;;;;;;;4.07;1.00;;;20.40;57.20;;;;;;5095311;28;20097;-73
2023/04/25 11:34:34;;;;;;;2.95;1.10;;;20.40;57.20;;;;;;5093740;28;20075;-70
2023/04/25 11:37:01;;;;;;;3.95;0.90;;;20.40;57.30;;;;;;5093825;28;20036;-70
2023/04/25 11:39:27;;;;;;;3.08;0.93;;;20.40;57.30;;;;;;5094858;28;20055;-71
2023/04/25 11:41:53;;;;;;;3.28;0.90;;;20.40;57.30;;;;;;5097313;28;20036;-70
2023/04/25 11:44:18;;;;;;;3.65;0.98;;;20.40;57.30;;;;;;5092992;28;20048;-69
2023/04/25 11:46:44;;;;;;;3.67;0.98;;;20.40;57.20;;;;;;5093518;28;20036;-72
2023/04/25 11:49:11;;;;;;;2.70;1.00;;;20.40;57.30;;;;;;5092565;28;20055;-71
2023/04/25 11:51:43;;;;;;;3.58;0.80;;;20.40;57.40;;;;;;5094563;28;20051;-71
2023/04/25 11:54:10;;;;;;;4.57;0.98;;;20.40;57.30;;;;;;5091488;28;20130;-72
2023/04/25 11:56:35;;;;;;;3.83;1.10;;;20.40;57.30;;;;;;5092150;28;20464;-70
2023/04/25 11:59:05;;;;;;;3.47;1.00;;;20.30;57.20;;;;;;5096405;28;20169;-71
2023/04/25 12:01:41;;;;;;;3.35;0.93;;;20.30;57.20;;;;;;5094220;28;20493;-71
2023/04/25 12:04:22;;;;;;;2.65;0.88;;;20.30;57.20;;;;;;5090064;28;20059;-71
2023/04/25 12:06:50;;;;;;;3.83;1.20;;;20.30;57.20;;;;;;5094204;28;20423;-70
2023/04/25 12:09:18;;;;;;;2.33;0.80;;;20.30;57.20;;;;;;5094344;28;20036;-70
2023/04/25 12:11:47;;;;;;;6.05;1.00;;;20.30;57.30;;;;;;5093973;28;20039;-70
2023/04/25 12:14:26;;;;;;;3.10;0.85;;;20.30;57.30;;;;;;5094072;28;20044;-70
2023/04/25 12:16:52;;;;;;;4.18;1.00;;;20.30;57.30;;;;;;5094460;28;20044;-70
2023/04/25 12:19:20;;;;;;;1.80;0.77;;;20.30;57.30;;;;;;5093586;28;20044;-71
2023/04/25 12:21:46;;;;;;;3.22;0.88;;;20.30;57.20;;;;;;5093591;28;20381;-70
2023/04/25 12:24:14;;;;;;;3.55;1.23;;;20.40;57.30;;;;;;5093074;28;20542;-69
2023/04/25 12:26:50;;;;;;;4.00;0.70;;;20.40;57.30;;;;;;5094097;28;20131;-69
2023/04/25 12:29:23;;;;;;;3.67;0.80;;;20.30;57.20;;;;;;5094180;28;20089;-69
2023/04/25 12:31:49;;;;;;;3.10;0.90;;;20.40;57.20;;;;;;5093194;28;20055;-69
2023/04/25 12:34:15;;;;;;;4.05;1.00;;;20.40;57.20;;;;;;5093856;28;20040;-70
2023/04/25 12:36:40;;;;;;;3.47;0.80;;;20.30;57.10;;;;;;5093850;28;20109;-70
2023/04/25 12:39:06;;;;;;;3.15;0.68;;;20.40;57.10;;;;;;5091492;28;20070;-71
2023/04/25 12:41:32;;;;;;;3.35;0.77;;;20.40;57.10;;;;;;5094282;28;20036;-71
2023/04/25 12:43:58;;;;;;;2.42;0.90;;;20.40;57.10;;;;;;5093598;28;20044;-70